sensor_id;sensor_type;location;lat;lon;timestamp;P1;durP1;ratioP1;P2;durP2;ratioP2
34828;SDS011;21042;47.620;12.188;2022-12-16T00:00:04;104.35;;;32.42;;
34828;SDS011;21042;47.620;12.188;2022-12-16T00:02:31;100.20;;;32.63;;
34828;SDS011;21042;47.620;12.188;2022-12-16T00:04:58;104.18;;;31.67;;
34828;SDS011;21042;47.620;12.188;2022-12-16T00:07:25;103.75;;;33.83;;
34828;SDS011;21042;47.620;12.188;2022-12-16T00:09:52;94.75;;;30.33;;
34828;SDS011;21042;47.620;12.188;2022-12-16T00:12:19;99.90;;;32.47;;
34828;SDS011;21042;47.620;12.188;2022-12-16T00:14:46;98.85;;;33.90;;
34828;SDS011;21042;47.620;12.188;2022-12-16T00:17:13;113.13;;;33.47;;
34828;SDS011;21042;47.620;12.188;2022-12-16T00:19:39;116.15;;;36.00;;
34828;SDS011;21042;47.620;12.188;2022-12-16T00:22:06;121.40;;;34.17;;
34828;SDS011;21042;47.620;12.188;2022-12-16T00:24:33;115.35;;;34.42;;
34828;SDS011;21042;47.620;12.188;2022-12-16T00:27:00;112.95;;;33.75;;
34828;SDS011;21042;47.620;12.188;2022-12-16T00:29:27;119.78;;;36.33;;
34828;SDS011;21042;47.620;12.188;2022-12-16T00:31:54;124.47;;;34.33;;
34828;SDS011;21042;47.620;12.188;2022-12-16T00:34:21;101.18;;;33.58;;
34828;SDS011;21042;47.620;12.188;2022-12-16T00:36:48;236.43;;;43.60;;
34828;SDS011;21042;47.620;12.188;2022-12-16T00:39:15;75.68;;;23.58;;
34828;SDS011;21042;47.620;12.188;2022-12-16T00:41:41;111.82;;;32.38;;
34828;SDS011;21042;47.620;12.188;2022-12-16T00:44:08;108.50;;;32.47;;
34828;SDS011;21042;47.620;12.188;2022-12-16T00:46:35;123.80;;;32.88;;
34828;SDS011;21042;47.620;12.188;2022-12-16T00:49:02;122.10;;;33.00;;
34828;SDS011;21042;47.620;12.188;2022-12-16T00:51:29;107.05;;;33.85;;
34828;SDS011;21042;47.620;12.188;2022-12-16T00:53:55;74.93;;;21.83;;
34828;SDS011;21042;47.620;12.188;2022-12-16T00:56:22;111.53;;;32.40;;
34828;SDS011;21042;47.620;12.188;2022-12-16T00:58:50;93.15;;;28.33;;
34828;SDS011;21042;47.620;12.188;2022-12-16T01:01:16;97.32;;;31.02;;
34828;SDS011;21042;47.620;12.188;2022-12-16T01:06:11;86.05;;;27.33;;
34828;SDS011;21042;47.620;12.188;2022-12-16T01:08:40;93.75;;;28.45;;
34828;SDS011;21042;47.620;12.188;2022-12-16T01:11:14;79.47;;;26.33;;
34828;SDS011;21042;47.620;12.188;2022-12-16T01:13:42;89.20;;;26.50;;
34828;SDS011;21042;47.620;12.188;2022-12-16T01:16:10;82.10;;;25.45;;
34828;SDS011;21042;47.620;12.188;2022-12-16T01:18:37;62.63;;;22.48;;
34828;SDS011;21042;47.620;12.188;2022-12-16T01:21:04;48.13;;;16.45;;
34828;SDS011;21042;47.620;12.188;2022-12-16T01:23:33;75.72;;;22.60;;
34828;SDS011;21042;47.620;12.188;2022-12-16T01:26:01;72.53;;;22.83;;
34828;SDS011;21042;47.620;12.188;2022-12-16T01:28:28;61.33;;;21.65;;
34828;SDS011;21042;47.620;12.188;2022-12-16T01:30:56;58.40;;;21.23;;
34828;SDS011;21042;47.620;12.188;2022-12-16T01:33:27;68.22;;;21.25;;
34828;SDS011;21042;47.620;12.188;2022-12-16T01:35:59;63.53;;;20.30;;
34828;SDS011;21042;47.620;12.188;2022-12-16T01:38:27;60.25;;;20.13;;
34828;SDS011;21042;47.620;12.188;2022-12-16T01:40:54;61.13;;;20.10;;
34828;SDS011;21042;47.620;12.188;2022-12-16T01:43:23;61.92;;;20.73;;
34828;SDS011;21042;47.620;12.188;2022-12-16T01:45:52;55.83;;;19.95;;
34828;SDS011;21042;47.620;12.188;2022-12-16T01:51:21;55.92;;;19.98;;
34828;SDS011;21042;47.620;12.188;2022-12-16T01:54:20;62.67;;;20.15;;
34828;SDS011;21042;47.620;12.188;2022-12-16T01:56:52;59.95;;;19.90;;
34828;SDS011;21042;47.620;12.188;2022-12-16T01:59:22;60.08;;;21.60;;
34828;SDS011;21042;47.620;12.188;2022-12-16T02:01:51;68.22;;;20.30;;
34828;SDS011;21042;47.620;12.188;2022-12-16T02:04:19;67.53;;;21.80;;
34828;SDS011;21042;47.620;12.188;2022-12-16T02:06:46;72.03;;;21.58;;
34828;SDS011;21042;47.620;12.188;2022-12-16T02:09:13;65.18;;;21.77;;
34828;SDS011;21042;47.620;12.188;2022-12-16T02:17:33;54.35;;;18.50;;
34828;SDS011;21042;47.620;12.188;2022-12-16T02:20:10;54.10;;;18.73;;
34828;SDS011;21042;47.620;12.188;2022-12-16T02:23:03;52.83;;;18.17;;
34828;SDS011;21042;47.620;12.188;2022-12-16T02:26:20;50.38;;;18.08;;
34828;SDS011;21042;47.620;12.188;2022-12-16T02:37:35;51.33;;;18.38;;
34828;SDS011;21042;47.620;12.188;2022-12-16T02:40:22;42.72;;;15.80;;
34828;SDS011;21042;47.620;12.188;2022-12-16T02:42:55;50.10;;;16.60;;
34828;SDS011;21042;47.620;12.188;2022-12-16T02:45:30;49.60;;;16.45;;
34828;SDS011;21042;47.620;12.188;2022-12-16T02:47:57;54.92;;;17.75;;
34828;SDS011;21042;47.620;12.188;2022-12-16T02:50:41;46.72;;;16.67;;
34828;SDS011;21042;47.620;12.188;2022-12-16T02:53:18;44.72;;;15.43;;
34828;SDS011;21042;47.620;12.188;2022-12-16T02:58:25;47.70;;;17.10;;
34828;SDS011;21042;47.620;12.188;2022-12-16T03:01:04;45.28;;;15.70;;
34828;SDS011;21042;47.620;12.188;2022-12-16T03:03:46;50.15;;;16.85;;
34828;SDS011;21042;47.620;12.188;2022-12-16T03:06:20;51.00;;;17.57;;
34828;SDS011;21042;47.620;12.188;2022-12-16T03:08:52;49.53;;;17.15;;
34828;SDS011;21042;47.620;12.188;2022-12-16T03:11:22;49.30;;;17.70;;
34828;SDS011;21042;47.620;12.188;2022-12-16T03:13:53;52.95;;;19.33;;
34828;SDS011;21042;47.620;12.188;2022-12-16T03:16:23;49.33;;;16.65;;
34828;SDS011;21042;47.620;12.188;2022-12-16T03:18:54;54.58;;;17.83;;
34828;SDS011;21042;47.620;12.188;2022-12-16T03:21:24;51.55;;;17.35;;
34828;SDS011;21042;47.620;12.188;2022-12-16T03:23:56;46.28;;;16.45;;
34828;SDS011;21042;47.620;12.188;2022-12-16T03:34:56;48.50;;;16.58;;
34828;SDS011;21042;47.620;12.188;2022-12-16T03:37:28;45.58;;;16.25;;
34828;SDS011;21042;47.620;12.188;2022-12-16T03:39:59;48.70;;;16.45;;
34828;SDS011;21042;47.620;12.188;2022-12-16T03:42:28;46.50;;;16.92;;
34828;SDS011;21042;47.620;12.188;2022-12-16T03:47:24;44.60;;;15.57;;
34828;SDS011;21042;47.620;12.188;2022-12-16T03:49:53;38.63;;;14.43;;
34828;SDS011;21042;47.620;12.188;2022-12-16T03:52:20;47.13;;;15.98;;
34828;SDS011;21042;47.620;12.188;2022-12-16T03:54:47;45.95;;;16.17;;
34828;SDS011;21042;47.620;12.188;2022-12-16T03:57:14;32.95;;;11.27;;
34828;SDS011;21042;47.620;12.188;2022-12-16T03:59:41;50.25;;;15.90;;
34828;SDS011;21042;47.620;12.188;2022-12-16T04:04:35;41.75;;;14.98;;
34828;SDS011;21042;47.620;12.188;2022-12-16T04:07:02;36.78;;;11.80;;
34828;SDS011;21042;47.620;12.188;2022-12-16T04:09:47;42.47;;;15.50;;
34828;SDS011;21042;47.620;12.188;2022-12-16T04:12:16;41.53;;;16.13;;
34828;SDS011;21042;47.620;12.188;2022-12-16T04:15:02;39.28;;;15.05;;
34828;SDS011;21042;47.620;12.188;2022-12-16T04:17:49;38.72;;;13.82;;
34828;SDS011;21042;47.620;12.188;2022-12-16T04:20:35;37.15;;;13.95;;
34828;SDS011;21042;47.620;12.188;2022-12-16T04:23:23;37.03;;;14.10;;
34828;SDS011;21042;47.620;12.188;2022-12-16T04:26:10;47.42;;;16.75;;
34828;SDS011;21042;47.620;12.188;2022-12-16T04:28:37;43.38;;;15.15;;
34828;SDS011;21042;47.620;12.188;2022-12-16T04:31:04;33.83;;;12.52;;
34828;SDS011;21042;47.620;12.188;2022-12-16T04:33:31;44.47;;;15.23;;
34828;SDS011;21042;47.620;12.188;2022-12-16T04:36:17;35.70;;;14.13;;
34828;SDS011;21042;47.620;12.188;2022-12-16T04:39:03;41.10;;;14.70;;
34828;SDS011;21042;47.620;12.188;2022-12-16T04:41:52;34.95;;;12.93;;
34828;SDS011;21042;47.620;12.188;2022-12-16T04:44:38;39.10;;;14.73;;
34828;SDS011;21042;47.620;12.188;2022-12-16T04:47:23;33.30;;;12.90;;
34828;SDS011;21042;47.620;12.188;2022-12-16T04:50:09;34.20;;;13.75;;
34828;SDS011;21042;47.620;12.188;2022-12-16T04:52:54;36.53;;;14.73;;
34828;SDS011;21042;47.620;12.188;2022-12-16T04:55:40;32.90;;;13.55;;
34828;SDS011;21042;47.620;12.188;2022-12-16T04:58:30;31.58;;;12.55;;
34828;SDS011;21042;47.620;12.188;2022-12-16T05:01:15;34.70;;;13.63;;
34828;SDS011;21042;47.620;12.188;2022-12-16T05:04:01;39.92;;;15.23;;
34828;SDS011;21042;47.620;12.188;2022-12-16T05:06:46;31.73;;;12.52;;
34828;SDS011;21042;47.620;12.188;2022-12-16T05:09:32;33.78;;;13.48;;
34828;SDS011;21042;47.620;12.188;2022-12-16T05:12:17;31.88;;;12.63;;
34828;SDS011;21042;47.620;12.188;2022-12-16T05:15:03;31.35;;;12.30;;
34828;SDS011;21042;47.620;12.188;2022-12-16T05:17:49;26.67;;;13.32;;
34828;SDS011;21042;47.620;12.188;2022-12-16T05:20:34;35.63;;;13.02;;
34828;SDS011;21042;47.620;12.188;2022-12-16T05:23:20;27.52;;;12.27;;
34828;SDS011;21042;47.620;12.188;2022-12-16T05:26:06;30.85;;;12.55;;
34828;SDS011;21042;47.620;12.188;2022-12-16T05:28:51;30.98;;;13.05;;
34828;SDS011;21042;47.620;12.188;2022-12-16T05:31:37;30.90;;;12.43;;
34828;SDS011;21042;47.620;12.188;2022-12-16T05:34:22;31.35;;;12.15;;
34828;SDS011;21042;47.620;12.188;2022-12-16T05:37:08;31.42;;;12.32;;
34828;SDS011;21042;47.620;12.188;2022-12-16T05:39:53;33.70;;;12.18;;
34828;SDS011;21042;47.620;12.188;2022-12-16T05:42:38;27.05;;;11.35;;
34828;SDS011;21042;47.620;12.188;2022-12-16T05:45:24;28.00;;;12.20;;
34828;SDS011;21042;47.620;12.188;2022-12-16T05:48:09;27.80;;;10.00;;
34828;SDS011;21042;47.620;12.188;2022-12-16T05:50:55;23.67;;;9.60;;
34828;SDS011;21042;47.620;12.188;2022-12-16T05:53:40;22.80;;;8.85;;
34828;SDS011;21042;47.620;12.188;2022-12-16T05:56:26;22.58;;;9.70;;
34828;SDS011;21042;47.620;12.188;2022-12-16T05:59:11;24.60;;;10.38;;
34828;SDS011;21042;47.620;12.188;2022-12-16T06:01:56;28.77;;;10.93;;
34828;SDS011;21042;47.620;12.188;2022-12-16T06:04:42;29.13;;;10.48;;
34828;SDS011;21042;47.620;12.188;2022-12-16T06:07:27;19.83;;;9.10;;
34828;SDS011;21042;47.620;12.188;2022-12-16T06:10:13;23.45;;;9.30;;
34828;SDS011;21042;47.620;12.188;2022-12-16T06:12:58;23.45;;;9.07;;
34828;SDS011;21042;47.620;12.188;2022-12-16T06:15:45;27.13;;;9.77;;
34828;SDS011;21042;47.620;12.188;2022-12-16T06:18:35;33.55;;;12.60;;
34828;SDS011;21042;47.620;12.188;2022-12-16T06:21:21;28.90;;;12.05;;
34828;SDS011;21042;47.620;12.188;2022-12-16T06:24:06;27.30;;;10.95;;
34828;SDS011;21042;47.620;12.188;2022-12-16T06:26:59;27.45;;;10.52;;
34828;SDS011;21042;47.620;12.188;2022-12-16T06:29:45;19.80;;;8.38;;
34828;SDS011;21042;47.620;12.188;2022-12-16T06:32:30;23.67;;;9.15;;
34828;SDS011;21042;47.620;12.188;2022-12-16T06:35:16;23.35;;;9.70;;
34828;SDS011;21042;47.620;12.188;2022-12-16T06:38:01;22.30;;;10.52;;
34828;SDS011;21042;47.620;12.188;2022-12-16T06:40:46;18.75;;;8.27;;
34828;SDS011;21042;47.620;12.188;2022-12-16T06:43:32;27.00;;;10.57;;
34828;SDS011;21042;47.620;12.188;2022-12-16T06:46:25;19.98;;;9.10;;
34828;SDS011;21042;47.620;12.188;2022-12-16T06:49:10;19.20;;;8.13;;
34828;SDS011;21042;47.620;12.188;2022-12-16T06:51:56;20.60;;;9.35;;
34828;SDS011;21042;47.620;12.188;2022-12-16T06:54:41;20.08;;;8.60;;
34828;SDS011;21042;47.620;12.188;2022-12-16T06:57:27;19.35;;;7.72;;
34828;SDS011;21042;47.620;12.188;2022-12-16T07:00:12;20.30;;;8.30;;
34828;SDS011;21042;47.620;12.188;2022-12-16T07:02:58;17.77;;;7.78;;
34828;SDS011;21042;47.620;12.188;2022-12-16T07:05:43;18.17;;;7.70;;
34828;SDS011;21042;47.620;12.188;2022-12-16T07:08:29;14.98;;;7.43;;
34828;SDS011;21042;47.620;12.188;2022-12-16T07:11:14;20.75;;;8.73;;
34828;SDS011;21042;47.620;12.188;2022-12-16T07:13:59;18.70;;;8.70;;
34828;SDS011;21042;47.620;12.188;2022-12-16T07:16:45;19.45;;;8.55;;
34828;SDS011;21042;47.620;12.188;2022-12-16T07:19:30;20.67;;;8.95;;
34828;SDS011;21042;47.620;12.188;2022-12-16T07:22:16;20.13;;;8.15;;
34828;SDS011;21042;47.620;12.188;2022-12-16T07:25:01;18.45;;;7.57;;
34828;SDS011;21042;47.620;12.188;2022-12-16T07:27:47;21.23;;;8.43;;
34828;SDS011;21042;47.620;12.188;2022-12-16T07:30:41;18.10;;;8.20;;
34828;SDS011;21042;47.620;12.188;2022-12-16T07:33:34;22.55;;;7.78;;
34828;SDS011;21042;47.620;12.188;2022-12-16T07:36:20;22.50;;;7.97;;
34828;SDS011;21042;47.620;12.188;2022-12-16T07:39:10;17.38;;;7.43;;
34828;SDS011;21042;47.620;12.188;2022-12-16T07:41:56;22.50;;;8.63;;
34828;SDS011;21042;47.620;12.188;2022-12-16T07:44:41;20.30;;;7.18;;
34828;SDS011;21042;47.620;12.188;2022-12-16T07:47:26;21.00;;;8.27;;
34828;SDS011;21042;47.620;12.188;2022-12-16T07:50:12;17.83;;;8.43;;
34828;SDS011;21042;47.620;12.188;2022-12-16T07:52:58;19.00;;;8.40;;
34828;SDS011;21042;47.620;12.188;2022-12-16T07:55:56;23.50;;;8.43;;
34828;SDS011;21042;47.620;12.188;2022-12-16T07:58:42;19.80;;;8.90;;
34828;SDS011;21042;47.620;12.188;2022-12-16T08:01:27;20.65;;;8.63;;
34828;SDS011;21042;47.620;12.188;2022-12-16T08:04:13;21.75;;;8.20;;
34828;SDS011;21042;47.620;12.188;2022-12-16T08:06:58;21.92;;;8.68;;
34828;SDS011;21042;47.620;12.188;2022-12-16T08:09:44;20.88;;;8.93;;
34828;SDS011;21042;47.620;12.188;2022-12-16T08:12:29;19.30;;;8.45;;
34828;SDS011;21042;47.620;12.188;2022-12-16T08:15:14;27.40;;;9.50;;
34828;SDS011;21042;47.620;12.188;2022-12-16T08:18:00;19.05;;;9.25;;
34828;SDS011;21042;47.620;12.188;2022-12-16T08:20:45;19.58;;;8.77;;
34828;SDS011;21042;47.620;12.188;2022-12-16T08:23:31;21.67;;;8.95;;
34828;SDS011;21042;47.620;12.188;2022-12-16T08:26:16;24.02;;;8.68;;
34828;SDS011;21042;47.620;12.188;2022-12-16T08:29:02;20.33;;;8.05;;
34828;SDS011;21042;47.620;12.188;2022-12-16T08:32:07;21.85;;;8.38;;
34828;SDS011;21042;47.620;12.188;2022-12-16T08:34:52;19.92;;;8.77;;
34828;SDS011;21042;47.620;12.188;2022-12-16T08:37:38;21.02;;;9.02;;
34828;SDS011;21042;47.620;12.188;2022-12-16T08:40:23;20.05;;;8.75;;
34828;SDS011;21042;47.620;12.188;2022-12-16T08:43:08;26.20;;;10.40;;
34828;SDS011;21042;47.620;12.188;2022-12-16T08:45:54;24.67;;;10.20;;
34828;SDS011;21042;47.620;12.188;2022-12-16T08:48:39;23.27;;;10.05;;
34828;SDS011;21042;47.620;12.188;2022-12-16T08:51:25;19.35;;;9.50;;
34828;SDS011;21042;47.620;12.188;2022-12-16T08:54:10;26.17;;;11.25;;
34828;SDS011;21042;47.620;12.188;2022-12-16T08:56:56;26.58;;;10.65;;
34828;SDS011;21042;47.620;12.188;2022-12-16T08:59:41;34.85;;;11.88;;
34828;SDS011;21042;47.620;12.188;2022-12-16T09:02:27;25.75;;;11.45;;
34828;SDS011;21042;47.620;12.188;2022-12-16T09:05:12;25.88;;;11.00;;
34828;SDS011;21042;47.620;12.188;2022-12-16T09:07:58;24.88;;;12.10;;
34828;SDS011;21042;47.620;12.188;2022-12-16T09:10:45;28.48;;;13.15;;
34828;SDS011;21042;47.620;12.188;2022-12-16T09:13:30;34.08;;;13.93;;
34828;SDS011;21042;47.620;12.188;2022-12-16T09:16:16;31.77;;;13.82;;
34828;SDS011;21042;47.620;12.188;2022-12-16T09:19:02;33.65;;;14.43;;
34828;SDS011;21042;47.620;12.188;2022-12-16T09:21:47;30.85;;;13.27;;
34828;SDS011;21042;47.620;12.188;2022-12-16T09:24:33;32.35;;;14.50;;
34828;SDS011;21042;47.620;12.188;2022-12-16T09:27:21;37.58;;;14.90;;
34828;SDS011;21042;47.620;12.188;2022-12-16T09:30:06;29.55;;;13.25;;
34828;SDS011;21042;47.620;12.188;2022-12-16T09:32:52;28.77;;;12.95;;
34828;SDS011;21042;47.620;12.188;2022-12-16T09:35:38;33.78;;;14.02;;
34828;SDS011;21042;47.620;12.188;2022-12-16T09:38:23;28.65;;;13.07;;
34828;SDS011;21042;47.620;12.188;2022-12-16T09:44:14;28.65;;;12.10;;
34828;SDS011;21042;47.620;12.188;2022-12-16T09:50:36;28.60;;;12.55;;
34828;SDS011;21042;47.620;12.188;2022-12-16T09:53:23;39.85;;;14.93;;
34828;SDS011;21042;47.620;12.188;2022-12-16T09:56:18;28.97;;;13.37;;
34828;SDS011;21042;47.620;12.188;2022-12-16T09:59:13;32.22;;;13.25;;
34828;SDS011;21042;47.620;12.188;2022-12-16T10:02:07;28.92;;;12.52;;
34828;SDS011;21042;47.620;12.188;2022-12-16T10:04:55;38.10;;;13.98;;
34828;SDS011;21042;47.620;12.188;2022-12-16T10:07:42;35.17;;;13.88;;
34828;SDS011;21042;47.620;12.188;2022-12-16T10:10:58;30.15;;;13.70;;
34828;SDS011;21042;47.620;12.188;2022-12-16T10:17:01;32.53;;;13.10;;
34828;SDS011;21042;47.620;12.188;2022-12-16T10:23:22;39.58;;;15.15;;
34828;SDS011;21042;47.620;12.188;2022-12-16T10:26:19;30.42;;;13.63;;
34828;SDS011;21042;47.620;12.188;2022-12-16T10:29:15;28.58;;;12.90;;
34828;SDS011;21042;47.620;12.188;2022-12-16T10:32:13;29.60;;;12.07;;
34828;SDS011;21042;47.620;12.188;2022-12-16T10:35:16;31.70;;;12.93;;
34828;SDS011;21042;47.620;12.188;2022-12-16T10:41:19;27.20;;;9.18;;
34828;SDS011;21042;47.620;12.188;2022-12-16T10:44:19;33.47;;;14.40;;
34828;SDS011;21042;47.620;12.188;2022-12-16T10:47:09;31.75;;;12.77;;
34828;SDS011;21042;47.620;12.188;2022-12-16T10:49:55;31.88;;;13.20;;
34828;SDS011;21042;47.620;12.188;2022-12-16T10:52:43;30.40;;;13.23;;
34828;SDS011;21042;47.620;12.188;2022-12-16T10:58:50;31.60;;;14.55;;
34828;SDS011;21042;47.620;12.188;2022-12-16T11:01:38;30.77;;;14.05;;
34828;SDS011;21042;47.620;12.188;2022-12-16T11:10:22;27.20;;;13.75;;
34828;SDS011;21042;47.620;12.188;2022-12-16T11:13:26;29.55;;;13.35;;
34828;SDS011;21042;47.620;12.188;2022-12-16T11:18:58;31.42;;;13.63;;
34828;SDS011;21042;47.620;12.188;2022-12-16T11:21:44;33.33;;;14.45;;
34828;SDS011;21042;47.620;12.188;2022-12-16T11:24:30;31.00;;;14.90;;
34828;SDS011;21042;47.620;12.188;2022-12-16T11:32:56;28.33;;;12.10;;
34828;SDS011;21042;47.620;12.188;2022-12-16T11:35:48;25.83;;;12.35;;
34828;SDS011;21042;47.620;12.188;2022-12-16T11:38:41;26.67;;;12.65;;
34828;SDS011;21042;47.620;12.188;2022-12-16T11:41:36;24.08;;;12.20;;
34828;SDS011;21042;47.620;12.188;2022-12-16T11:44:28;31.48;;;12.35;;
34828;SDS011;21042;47.620;12.188;2022-12-16T11:50:22;31.60;;;12.40;;
34828;SDS011;21042;47.620;12.188;2022-12-16T11:56:04;26.63;;;10.65;;
34828;SDS011;21042;47.620;12.188;2022-12-16T11:58:51;27.35;;;12.60;;
34828;SDS011;21042;47.620;12.188;2022-12-16T12:01:45;29.63;;;12.85;;
34828;SDS011;21042;47.620;12.188;2022-12-16T12:04:39;28.85;;;14.05;;
34828;SDS011;21042;47.620;12.188;2022-12-16T12:22:47;32.55;;;13.82;;
34828;SDS011;21042;47.620;12.188;2022-12-16T12:25:45;40.35;;;16.20;;
34828;SDS011;21042;47.620;12.188;2022-12-16T12:28:48;36.72;;;16.45;;
34828;SDS011;21042;47.620;12.188;2022-12-16T12:31:58;45.80;;;18.33;;
34828;SDS011;21042;47.620;12.188;2022-12-16T12:38:15;49.83;;;20.05;;
34828;SDS011;21042;47.620;12.188;2022-12-16T12:44:02;44.33;;;19.35;;
34828;SDS011;21042;47.620;12.188;2022-12-16T12:47:16;48.47;;;20.40;;
34828;SDS011;21042;47.620;12.188;2022-12-16T12:52:58;44.50;;;19.60;;
34828;SDS011;21042;47.620;12.188;2022-12-16T12:58:44;48.55;;;20.95;;
34828;SDS011;21042;47.620;12.188;2022-12-16T13:01:32;53.05;;;22.25;;
34828;SDS011;21042;47.620;12.188;2022-12-16T13:04:22;56.55;;;23.63;;
34828;SDS011;21042;47.620;12.188;2022-12-16T13:07:09;51.85;;;21.38;;
34828;SDS011;21042;47.620;12.188;2022-12-16T13:16:03;59.40;;;21.42;;
34828;SDS011;21042;47.620;12.188;2022-12-16T13:25:31;58.35;;;22.42;;
34828;SDS011;21042;47.620;12.188;2022-12-16T13:28:33;51.00;;;22.15;;
34828;SDS011;21042;47.620;12.188;2022-12-16T13:36:59;54.65;;;21.95;;
34828;SDS011;21042;47.620;12.188;2022-12-16T13:40:11;53.00;;;21.35;;
34828;SDS011;21042;47.620;12.188;2022-12-16T13:43:01;54.08;;;21.50;;
34828;SDS011;21042;47.620;12.188;2022-12-16T13:48:44;53.35;;;21.98;;
34828;SDS011;21042;47.620;12.188;2022-12-16T13:51:54;55.35;;;22.02;;
34828;SDS011;21042;47.620;12.188;2022-12-16T13:54:50;54.08;;;21.55;;
34828;SDS011;21042;47.620;12.188;2022-12-16T13:57:48;64.38;;;22.80;;
34828;SDS011;21042;47.620;12.188;2022-12-16T14:00:39;58.22;;;21.63;;
34828;SDS011;21042;47.620;12.188;2022-12-16T14:03:39;55.28;;;22.73;;
34828;SDS011;21042;47.620;12.188;2022-12-16T14:06:28;55.50;;;23.08;;
34828;SDS011;21042;47.620;12.188;2022-12-16T14:09:22;61.67;;;21.88;;
34828;SDS011;21042;47.620;12.188;2022-12-16T14:15:27;57.05;;;22.90;;
34828;SDS011;21042;47.620;12.188;2022-12-16T14:21:10;54.17;;;21.60;;
34828;SDS011;21042;47.620;12.188;2022-12-16T14:24:01;58.58;;;23.17;;
34828;SDS011;21042;47.620;12.188;2022-12-16T14:26:51;65.68;;;24.33;;
34828;SDS011;21042;47.620;12.188;2022-12-16T14:29:37;61.05;;;23.58;;
34828;SDS011;21042;47.620;12.188;2022-12-16T14:32:27;58.90;;;24.10;;
34828;SDS011;21042;47.620;12.188;2022-12-16T14:35:19;53.03;;;22.00;;
34828;SDS011;21042;47.620;12.188;2022-12-16T14:38:22;58.22;;;21.45;;
34828;SDS011;21042;47.620;12.188;2022-12-16T14:41:11;54.17;;;22.08;;
34828;SDS011;21042;47.620;12.188;2022-12-16T14:44:04;52.78;;;20.83;;
34828;SDS011;21042;47.620;12.188;2022-12-16T14:46:59;53.95;;;22.17;;
34828;SDS011;21042;47.620;12.188;2022-12-16T14:49:49;56.72;;;21.25;;
34828;SDS011;21042;47.620;12.188;2022-12-16T14:52:37;58.88;;;23.60;;
34828;SDS011;21042;47.620;12.188;2022-12-16T14:55:27;58.30;;;22.27;;
34828;SDS011;21042;47.620;12.188;2022-12-16T14:58:15;55.70;;;21.23;;
34828;SDS011;21042;47.620;12.188;2022-12-16T15:01:04;60.08;;;22.00;;
34828;SDS011;21042;47.620;12.188;2022-12-16T15:03:59;54.40;;;22.70;;
34828;SDS011;21042;47.620;12.188;2022-12-16T15:06:48;51.42;;;20.23;;
34828;SDS011;21042;47.620;12.188;2022-12-16T15:09:40;48.17;;;19.60;;
34828;SDS011;21042;47.620;12.188;2022-12-16T15:12:38;56.58;;;20.80;;
34828;SDS011;21042;47.620;12.188;2022-12-16T15:15:37;55.05;;;20.98;;
34828;SDS011;21042;47.620;12.188;2022-12-16T15:18:32;54.42;;;20.88;;
34828;SDS011;21042;47.620;12.188;2022-12-16T15:21:22;46.42;;;20.73;;
34828;SDS011;21042;47.620;12.188;2022-12-16T15:24:08;53.72;;;19.58;;
34828;SDS011;21042;47.620;12.188;2022-12-16T15:27:12;51.50;;;20.02;;
34828;SDS011;21042;47.620;12.188;2022-12-16T15:33:31;45.45;;;18.95;;
34828;SDS011;21042;47.620;12.188;2022-12-16T15:41:59;49.25;;;21.05;;
34828;SDS011;21042;47.620;12.188;2022-12-16T15:44:46;50.63;;;20.70;;
34828;SDS011;21042;47.620;12.188;2022-12-16T15:50:24;52.22;;;19.90;;
34828;SDS011;21042;47.620;12.188;2022-12-16T15:53:15;52.95;;;22.33;;
34828;SDS011;21042;47.620;12.188;2022-12-16T15:56:15;52.33;;;21.25;;
34828;SDS011;21042;47.620;12.188;2022-12-16T16:02:03;50.17;;;19.88;;
34828;SDS011;21042;47.620;12.188;2022-12-16T16:04:52;65.75;;;23.05;;
34828;SDS011;21042;47.620;12.188;2022-12-16T16:07:37;53.10;;;20.85;;
34828;SDS011;21042;47.620;12.188;2022-12-16T16:10:29;57.50;;;22.23;;
34828;SDS011;21042;47.620;12.188;2022-12-16T16:13:14;56.00;;;21.75;;
34828;SDS011;21042;47.620;12.188;2022-12-16T16:16:00;57.25;;;21.98;;
34828;SDS011;21042;47.620;12.188;2022-12-16T16:18:47;56.28;;;22.52;;
34828;SDS011;21042;47.620;12.188;2022-12-16T16:21:32;57.80;;;22.20;;
34828;SDS011;21042;47.620;12.188;2022-12-16T16:24:18;50.33;;;20.60;;
34828;SDS011;21042;47.620;12.188;2022-12-16T16:27:04;49.63;;;19.90;;
34828;SDS011;21042;47.620;12.188;2022-12-16T16:29:55;53.22;;;22.45;;
34828;SDS011;21042;47.620;12.188;2022-12-16T16:32:40;56.22;;;21.77;;
34828;SDS011;21042;47.620;12.188;2022-12-16T16:35:26;50.13;;;21.25;;
34828;SDS011;21042;47.620;12.188;2022-12-16T16:38:11;51.03;;;21.05;;
34828;SDS011;21042;47.620;12.188;2022-12-16T16:40:57;53.17;;;20.35;;
34828;SDS011;21042;47.620;12.188;2022-12-16T16:43:42;52.97;;;19.75;;
34828;SDS011;21042;47.620;12.188;2022-12-16T16:46:37;46.10;;;21.00;;
34828;SDS011;21042;47.620;12.188;2022-12-16T16:49:29;50.10;;;19.35;;
34828;SDS011;21042;47.620;12.188;2022-12-16T16:52:17;53.75;;;20.60;;
34828;SDS011;21042;47.620;12.188;2022-12-16T16:55:05;56.00;;;21.25;;
34828;SDS011;21042;47.620;12.188;2022-12-16T16:57:51;56.95;;;22.58;;
34828;SDS011;21042;47.620;12.188;2022-12-16T17:00:37;55.22;;;22.17;;
34828;SDS011;21042;47.620;12.188;2022-12-16T17:03:39;56.60;;;23.75;;
34828;SDS011;21042;47.620;12.188;2022-12-16T17:06:25;62.33;;;23.50;;
34828;SDS011;21042;47.620;12.188;2022-12-16T17:09:10;64.28;;;24.67;;
34828;SDS011;21042;47.620;12.188;2022-12-16T17:11:56;60.70;;;24.58;;
34828;SDS011;21042;47.620;12.188;2022-12-16T17:14:41;66.28;;;23.65;;
34828;SDS011;21042;47.620;12.188;2022-12-16T17:17:27;60.63;;;22.83;;
34828;SDS011;21042;47.620;12.188;2022-12-16T17:20:13;67.70;;;25.95;;
34828;SDS011;21042;47.620;12.188;2022-12-16T17:22:59;67.97;;;25.00;;
34828;SDS011;21042;47.620;12.188;2022-12-16T17:25:45;58.72;;;24.17;;
34828;SDS011;21042;47.620;12.188;2022-12-16T17:28:30;63.75;;;27.10;;
34828;SDS011;21042;47.620;12.188;2022-12-16T17:31:16;59.40;;;23.20;;
34828;SDS011;21042;47.620;12.188;2022-12-16T17:34:06;62.83;;;23.75;;
34828;SDS011;21042;47.620;12.188;2022-12-16T17:36:52;67.05;;;24.95;;
34828;SDS011;21042;47.620;12.188;2022-12-16T17:39:57;65.57;;;24.65;;
34828;SDS011;21042;47.620;12.188;2022-12-16T17:42:42;63.97;;;24.30;;
34828;SDS011;21042;47.620;12.188;2022-12-16T17:45:27;66.38;;;23.75;;
34828;SDS011;21042;47.620;12.188;2022-12-16T17:48:12;60.58;;;23.55;;
34828;SDS011;21042;47.620;12.188;2022-12-16T17:51:00;55.28;;;22.42;;
34828;SDS011;21042;47.620;12.188;2022-12-16T17:53:46;62.55;;;23.58;;
34828;SDS011;21042;47.620;12.188;2022-12-16T17:56:44;69.35;;;26.10;;
34828;SDS011;21042;47.620;12.188;2022-12-16T17:59:30;62.60;;;23.30;;
34828;SDS011;21042;47.620;12.188;2022-12-16T18:02:19;64.65;;;25.02;;
34828;SDS011;21042;47.620;12.188;2022-12-16T18:05:05;57.88;;;23.95;;
34828;SDS011;21042;47.620;12.188;2022-12-16T18:07:56;61.92;;;23.42;;
34828;SDS011;21042;47.620;12.188;2022-12-16T18:10:41;57.05;;;22.10;;
34828;SDS011;21042;47.620;12.188;2022-12-16T18:13:26;59.55;;;23.92;;